Krasnodar, Russia

4:56 PM MSK on July 24, 2016 (GMT +0300)
Pashkovsky | | Change Station

Elev 112 ft 45.03 °N, 39.15 °E | Updated 26 minutes ago

Mostly Cloudy
Mostly Cloudy
77 °F
Feels Like 77 °F
N
11
Wind Variable Wind from WNW

Today
High -- | Low -- °F
--% Chance of Precip.
Yesterday
High -- | Low -- °F
Precip. -- in
Pressure 29.77 in
Visibility 6.2 miles
Clouds Mostly Cloudy 3700 ft
Dew Point 59 °F
Humidity 54%
Rainfall 0.00 in
Snow Depth Not available.
4:59 AM 7:59 PM
Waning Gibbous, 76% visible
METAR URKK 241330Z 29005MPS 250V310 9999 BKN037 25/15 Q1008 R23C/CLRD60 TEMPO VRB10G18MPS 0500 +TSRA SCT004 SCT020CB RMK QFE753
Pressure 29.77 in
Visibility 6.2 miles
Clouds Mostly Cloudy 3700 ft
Dew Point 59 °F
Humidity 54%
Rainfall 0.00 in
Snow Depth Not available.
4:59 AM 7:59 PM
Waning Gibbous, 76% visible
METAR URKK 241330Z 29005MPS 250V310 9999 BKN037 25/15 Q1008 R23C/CLRD60 TEMPO VRB10G18MPS 0500 +TSRA SCT004 SCT020CB RMK QFE753

10-Day Weather Forecast

×

Almanac

Astronomy

Jul. 24, 2016 Rise Set
Actual Time
Civil Twilight
Nautical Twilight
Astronomical Twilight
Moon
Length of Visible Light
Length of Day
Tomorrow will be .
, % of the Moon is Illuminated

Today's Extremes

Country Highs Country Lows

Community

WunderPhotos

Upload Photos

1,927,057 photos uploaded!

WunderBlog® & News

Nearby

Air Quality

  Air Quality AQ Index Pollutant
Not available.

Snow Depth

Station Depth Elevation

Earthquake Activity

City Distance Mag. Time & Date
Minimum magnitude displayed is 2.5.

Coastal Water Temperatures

Place Temperature

Stations

Nearby Weather Stations

Station Location Temp. Windchill Dew Point Humidity Wind Precip. Elev Updated Type